createdAt,value
2022-09-26T00:01:14.328Z,100978.56
2022-09-26T00:03:44.951Z,100987.06
2022-09-26T00:06:12.592Z,100982.56
2022-09-26T00:08:39.816Z,100979.88
2022-09-26T00:11:09.208Z,100977.97
2022-09-26T00:13:38.906Z,100968.38
2022-09-26T00:16:06.460Z,100970.91
2022-09-26T00:18:33.956Z,100961.19
2022-09-26T00:21:09.946Z,100961.91
2022-09-26T00:23:36.789Z,100955.66
2022-09-26T00:26:03.922Z,100951.19
2022-09-26T00:28:30.934Z,100952.75
2022-09-26T00:30:57.809Z,100948.34
2022-09-26T00:33:24.331Z,100941.38
2022-09-26T00:35:55.548Z,100930.97
2022-09-26T00:38:22.485Z,100918.91
2022-09-26T00:40:49.417Z,100918.19
2022-09-26T00:43:36.265Z,100904.34
2022-09-26T00:46:20.938Z,100898.38
2022-09-26T00:48:54.858Z,100889.66
2022-09-26T00:51:22.266Z,100880.97
2022-09-26T00:53:52.188Z,100876.69
2022-09-26T00:56:22.952Z,100866.22
2022-09-26T00:58:59.496Z,100857.53
2022-09-26T01:01:26.164Z,100849.69
2022-09-26T01:03:52.792Z,100848.84
2022-09-26T01:06:21.225Z,100839.28
2022-09-26T01:08:58.815Z,100831.44
2022-09-26T01:11:25.779Z,100828.81
2022-09-26T01:13:54.358Z,100811.38
2022-09-26T01:16:20.967Z,100813.88
2022-09-26T01:18:48.201Z,100803.41
2022-09-26T01:21:54.241Z,100799.84
2022-09-26T01:25:02.482Z,100787.72
2022-09-26T01:27:35.338Z,100777.25
2022-09-26T01:30:15.635Z,100772.13
2022-09-26T01:33:13.448Z,100776.50
2022-09-26T01:35:48.792Z,100763.41
2022-09-26T01:38:44.547Z,100766.97
2022-09-26T01:41:39.311Z,100767.91
2022-09-26T01:44:23.374Z,100749.59
2022-09-26T01:47:01.573Z,100762.69
2022-09-26T01:50:03.150Z,100754.00
2022-09-26T01:52:39.352Z,100749.81
2022-09-26T01:55:14.111Z,100744.56
2022-09-26T01:57:50.838Z,100742.78
2022-09-26T02:00:18.532Z,100736.72
2022-09-26T02:02:47.677Z,100731.47
2022-09-26T02:05:22.416Z,100719.25
2022-09-26T02:08:17.682Z,100722.69
2022-09-26T02:10:49.120Z,100713.16
2022-09-26T02:13:33.518Z,100708.78
2022-09-26T02:16:11.498Z,100700.09
2022-09-26T02:18:48.090Z,100704.50
2022-09-26T02:21:18.937Z,100705.41
2022-09-26T02:23:47.317Z,100697.66
2022-09-26T02:26:14.101Z,100699.53
2022-09-26T02:28:40.850Z,100689.38
2022-09-26T02:31:08.355Z,100685.94
2022-09-26T02:33:35.873Z,100679.94
2022-09-26T02:36:08.336Z,100666.16
2022-09-26T02:38:34.924Z,100672.25
2022-09-26T02:41:01.278Z,100668.91
2022-09-26T02:43:52.466Z,100651.53
2022-09-26T02:46:28.033Z,100656.03
2022-09-26T02:49:39.022Z,100645.66
2022-09-26T02:52:32.844Z,100645.78
2022-09-26T02:55:24.358Z,100643.16
2022-09-26T02:58:21.198Z,100625.78
2022-09-26T03:00:50.481Z,100629.31
2022-09-26T03:03:31.886Z,100631.22
2022-09-26T03:06:00.670Z,100620.84
2022-09-26T03:08:30.949Z,100613.94
2022-09-26T03:11:02.883Z,100624.50
2022-09-26T03:13:35.808Z,100620.22
2022-09-26T03:16:03.154Z,100606.38
2022-09-26T03:18:36.675Z,100605.66
2022-09-26T03:21:03.119Z,100601.38
2022-09-26T03:23:30.080Z,100593.53
2022-09-26T03:26:02.282Z,100592.66
2022-09-26T03:28:31.751Z,100583.91
2022-09-26T03:31:00.510Z,100579.59
2022-09-26T03:33:26.975Z,100571.75
2022-09-26T03:35:53.457Z,100560.47
2022-09-26T03:38:19.889Z,100552.63
2022-09-26T03:40:46.624Z,100557.75
2022-09-26T03:43:13.380Z,100546.25
2022-09-26T03:45:39.830Z,100539.34
2022-09-26T03:48:06.299Z,100536.72
2022-09-26T03:50:33.902Z,100534.13
2022-09-26T03:53:01.370Z,100532.34
2022-09-26T03:55:28.532Z,100525.31
2022-09-26T03:57:55.897Z,100520.09
2022-09-26T04:00:22.309Z,100504.41
2022-09-26T04:02:48.807Z,100507.00
2022-09-26T04:05:15.341Z,100496.66
2022-09-26T04:07:44.436Z,100491.31
2022-09-26T04:10:14.152Z,100478.50
2022-09-26T04:12:40.819Z,100481.81
2022-09-26T04:15:08.059Z,100477.41
2022-09-26T04:17:34.504Z,100466.97
2022-09-26T04:20:01.631Z,100464.47
2022-09-26T04:22:28.087Z,100459.94
2022-09-26T04:24:54.528Z,100452.09
2022-09-26T04:27:20.930Z,100439.03
2022-09-26T04:29:47.431Z,100438.31
2022-09-26T04:32:13.932Z,100424.28
2022-09-26T04:34:40.649Z,100422.63
2022-09-26T04:37:07.112Z,100420.84
2022-09-26T04:39:35.870Z,100423.47
2022-09-26T04:42:02.348Z,100406.94
2022-09-26T04:44:30.313Z,100408.59
2022-09-26T04:46:56.841Z,100399.81
2022-09-26T04:49:24.075Z,100399.59
2022-09-26T04:51:51.942Z,100394.38
2022-09-26T04:54:18.352Z,100404.84
2022-09-26T04:56:44.796Z,100387.47
2022-09-26T04:59:11.524Z,100382.38
2022-09-26T05:01:38.141Z,100380.59
2022-09-26T05:04:04.679Z,100378.88
2022-09-26T05:06:31.650Z,100370.34
2022-09-26T05:08:58.225Z,100356.50
2022-09-26T05:11:25.053Z,100339.16
2022-09-26T05:13:53.612Z,100328.72
2022-09-26T05:16:20.331Z,100321.81
2022-09-26T05:18:51.846Z,100318.34
2022-09-26T05:21:18.609Z,100319.28
2022-09-26T05:24:03.283Z,100319.41
2022-09-26T05:26:38.919Z,100319.50
2022-09-26T05:29:08.894Z,100322.13
2022-09-26T05:31:37.863Z,100320.44
2022-09-26T05:34:07.392Z,100307.50
2022-09-26T05:36:34.188Z,100312.72
2022-09-26T05:39:00.675Z,100313.56
2022-09-26T05:41:29.523Z,100313.66
2022-09-26T05:43:56.376Z,100305.81
2022-09-26T05:46:23.798Z,100302.28
2022-09-26T05:48:50.517Z,100301.53
2022-09-26T05:51:21.088Z,100298.09
2022-09-26T05:53:49.429Z,100298.78
2022-09-26T05:56:19.218Z,100292.72
2022-09-26T05:58:46.553Z,100283.31
2022-09-26T06:01:15.493Z,100284.19
2022-09-26T06:03:47.485Z,100286.88
2022-09-26T06:06:16.553Z,100283.44
2022-09-26T06:08:43.593Z,100283.44
2022-09-26T06:11:15.123Z,100264.53
2022-09-26T06:13:45.603Z,100257.63
2022-09-26T06:16:21.217Z,100247.19
2022-09-26T06:18:51.043Z,100251.34
2022-09-26T06:21:18.900Z,100241.75
2022-09-26T06:23:45.800Z,100235.44
2022-09-26T06:26:17.133Z,100235.13
2022-09-26T06:28:43.608Z,100217.53
2022-09-26T06:31:12.095Z,100221.72
2022-09-26T06:33:38.578Z,100208.44
2022-09-26T06:36:08.639Z,100204.03
2022-09-26T06:38:35.841Z,100203.94
2022-09-26T06:41:02.998Z,100194.19
2022-09-26T06:43:31.226Z,100187.91
2022-09-26T06:45:57.642Z,100181.66
2022-09-26T06:48:25.336Z,100181.66
2022-09-26T06:50:53.156Z,100166.78
2022-09-26T06:53:20.637Z,100160.50
2022-09-26T06:55:47.310Z,100162.16
2022-09-26T06:58:13.917Z,100150.66
2022-09-26T07:00:40.765Z,100143.50
2022-09-26T07:03:08.202Z,100141.63
2022-09-26T07:05:35.046Z,100134.31
2022-09-26T07:08:02.749Z,100131.38
2022-09-26T07:10:30.361Z,100125.91
2022-09-26T07:13:05.209Z,100129.97
2022-09-26T07:15:33.912Z,100126.91
2022-09-26T07:18:06.276Z,100120.50
2022-09-26T07:20:36.958Z,100111.34
2022-09-26T07:23:04.561Z,100115.03
2022-09-26T07:25:31.859Z,100119.59
2022-09-26T07:27:58.927Z,100107.94
2022-09-26T07:30:26.404Z,100113.06
2022-09-26T07:32:52.767Z,100102.94
2022-09-26T07:35:19.355Z,100109.13
2022-09-26T07:37:46.188Z,100106.75
2022-09-26T07:40:13.539Z,100101.72
2022-09-26T07:42:42.076Z,100109.72
2022-09-26T07:45:24.788Z,100103.75
2022-09-26T07:48:13.683Z,100107.31
2022-09-26T07:50:40.172Z,100093.41
2022-09-26T07:53:06.583Z,100093.41
2022-09-26T07:55:54.178Z,100097.69
2022-09-26T07:58:22.442Z,100091.63
2022-09-26T08:00:48.805Z,100088.78
2022-09-26T08:03:15.362Z,100092.91
2022-09-26T08:05:43.004Z,100079.59
2022-09-26T08:08:09.443Z,100084.38
2022-09-26T08:10:35.838Z,100073.69
2022-09-26T08:13:02.199Z,100073.44
2022-09-26T08:15:28.579Z,100067.25
2022-09-26T08:17:55.014Z,100052.28
2022-09-26T08:20:21.523Z,100054.44
2022-09-26T08:22:48.038Z,100048.00
2022-09-26T08:25:14.563Z,100046.94
2022-09-26T08:27:43.459Z,100045.00
2022-09-26T08:30:10.536Z,100042.16
2022-09-26T08:32:37.185Z,100034.06
2022-09-26T08:35:03.773Z,100036.44
2022-09-26T08:37:31.479Z,100036.19
2022-09-26T08:39:57.990Z,100038.00
2022-09-26T08:42:37.592Z,100032.63
2022-09-26T08:45:46.658Z,100024.44
2022-09-26T08:48:30.387Z,100018.09
2022-09-26T08:51:29.062Z,100024.19
2022-09-26T08:54:09.927Z,100018.34
2022-09-26T08:56:41.111Z,100011.22
2022-09-26T08:59:17.923Z,100005.25
2022-09-26T09:01:45.388Z,100008.22
2022-09-26T09:04:16.612Z,100011.47
2022-09-26T09:06:44.313Z,100008.00
2022-09-26T09:09:16.247Z,100001.09
2022-09-26T09:12:01.850Z,99993.13
2022-09-26T09:15:24.739Z,99995.88
2022-09-26T09:18:22.639Z,99989.22
2022-09-26T09:21:25.857Z,99988.38
2022-09-26T09:24:13.456Z,99988.13
2022-09-26T09:30:00.467Z,99973.75
2022-09-26T09:32:51.145Z,99964.91
2022-09-26T09:35:25.029Z,99963.03
2022-09-26T09:37:53.757Z,99966.00
2022-09-26T09:40:44.320Z,99958.75
2022-09-26T09:43:26.828Z,99946.72
2022-09-26T09:45:59.007Z,99944.44
2022-09-26T09:48:27.282Z,99940.84
2022-09-26T09:51:11.136Z,99930.56
2022-09-26T09:53:56.553Z,99931.66
2022-09-26T09:56:52.022Z,99930.81
2022-09-26T09:59:36.773Z,99919.34
2022-09-26T10:02:21.531Z,99921.50
2022-09-26T10:05:00.474Z,99908.13
2022-09-26T10:07:27.135Z,99913.38
2022-09-26T10:09:54.059Z,99906.69
2022-09-26T10:12:28.697Z,99905.28
2022-09-26T10:15:02.318Z,99907.09
2022-09-26T10:17:29.488Z,99901.22
2022-09-26T10:19:56.071Z,99905.28
2022-09-26T10:22:44.031Z,99895.38
2022-09-26T10:25:21.301Z,99896.88
2022-09-26T10:27:51.555Z,99895.13
2022-09-26T10:30:18.408Z,99909.88
2022-09-26T10:32:47.703Z,99892.22
2022-09-26T10:35:20.909Z,99894.66
2022-09-26T10:38:02.204Z,99895.97
2022-09-26T10:40:46.323Z,99892.91
2022-09-26T10:43:28.564Z,99894.88
2022-09-26T10:46:02.487Z,99891.34
2022-09-26T10:48:48.053Z,99892.91
2022-09-26T10:51:25.063Z,99893.72
2022-09-26T10:53:56.607Z,99891.09
2022-09-26T10:56:29.152Z,99895.66
2022-09-26T10:58:59.508Z,99892.91
2022-09-26T11:01:31.105Z,99889.94
2022-09-26T11:04:11.639Z,99883.47
2022-09-26T11:06:45.231Z,99883.47
2022-09-26T11:09:17.869Z,99885.97
2022-09-26T11:11:47.977Z,99881.69
2022-09-26T11:14:28.014Z,99881.53
2022-09-26T11:16:56.347Z,99878.69
2022-09-26T11:19:35.596Z,99877.75
2022-09-26T11:22:11.148Z,99869.31
2022-09-26T11:25:03.482Z,99870.13
2022-09-26T11:27:44.049Z,99878.69
2022-09-26T11:30:14.608Z,99858.84
2022-09-26T11:32:44.299Z,99859.66
2022-09-26T11:35:20.959Z,99859.66
2022-09-26T11:38:28.925Z,99859.41
2022-09-26T11:41:13.485Z,99860.81
2022-09-26T11:44:07.458Z,99847.56
2022-09-26T11:46:46.604Z,99856.66
2022-09-26T11:49:30.574Z,99848.81
2022-09-26T11:52:20.046Z,99844.94
2022-09-26T11:55:10.699Z,99843.06
2022-09-26T11:57:50.601Z,99844.13
2022-09-26T12:00:24.551Z,99847.91
2022-09-26T12:02:56.171Z,99845.19
2022-09-26T12:05:50.635Z,99841.84
2022-09-26T12:08:47.125Z,99841.03
2022-09-26T12:11:41.632Z,99840.31
2022-09-26T12:14:39.172Z,99827.09
2022-09-26T12:17:36.951Z,99829.31
2022-09-26T12:20:27.986Z,99817.50
2022-09-26T12:23:11.718Z,99815.47
2022-09-26T12:25:56.835Z,99813.09
2022-09-26T12:28:26.943Z,99810.47
2022-09-26T12:31:18.719Z,99804.03
2022-09-26T12:34:04.800Z,99808.56
2022-09-26T12:36:48.736Z,99807.22
2022-09-26T12:39:15.169Z,99794.00
2022-09-26T12:42:11.844Z,99796.63
2022-09-26T12:45:10.466Z,99789.06
2022-09-26T12:48:16.978Z,99795.16
2022-09-26T12:51:22.572Z,99793.50
2022-09-26T12:54:15.532Z,99784.91
2022-09-26T12:57:18.790Z,99785.22
2022-09-26T13:00:10.946Z,99778.66
2022-09-26T13:02:56.650Z,99773.97
2022-09-26T13:05:58.900Z,99780.03
2022-09-26T13:08:40.544Z,99773.84
2022-09-26T13:11:13.190Z,99774.22
2022-09-26T13:14:27.623Z,99769.09
2022-09-26T13:17:06.134Z,99761.50
2022-09-26T13:19:59.005Z,99764.00
2022-09-26T13:22:43.280Z,99762.47
2022-09-26T13:25:26.027Z,99758.25
2022-09-26T13:28:12.283Z,99748.34
2022-09-26T13:30:42.748Z,99752.03
2022-09-26T13:33:20.685Z,99756.44
2022-09-26T13:35:50.990Z,99753.13
2022-09-26T13:38:32.437Z,99756.84
2022-09-26T13:41:08.662Z,99760.31
2022-09-26T13:44:17.240Z,99759.59
2022-09-26T13:47:17.727Z,99765.28
2022-09-26T13:50:12.616Z,99749.97
2022-09-26T13:52:52.475Z,99728.75
2022-09-26T13:55:21.690Z,99731.84
2022-09-26T13:58:06.822Z,99731.91
2022-09-26T14:00:40.711Z,99727.50
2022-09-26T14:03:09.281Z,99713.31
2022-09-26T14:06:07.062Z,99716.97
2022-09-26T14:08:54.291Z,99723.72
2022-09-26T14:11:26.300Z,99706.03
2022-09-26T14:14:37.679Z,99721.91
2022-09-26T14:17:42.787Z,99707.28
2022-09-26T14:20:20.141Z,99709.63
2022-09-26T14:22:52.600Z,99705.06
2022-09-26T14:25:46.568Z,99710.75
2022-09-26T14:28:32.701Z,99703.81
2022-09-26T14:31:18.024Z,99708.66
2022-09-26T14:33:45.502Z,99704.94
2022-09-26T14:36:25.979Z,99703.53
2022-09-26T14:38:55.077Z,99698.94
2022-09-26T14:41:27.807Z,99685.28
2022-09-26T14:44:01.366Z,99693.28
2022-09-26T14:46:32.807Z,99684.88
2022-09-26T14:49:06.080Z,99687.75
2022-09-26T14:51:41.522Z,99691.72
2022-09-26T14:54:34.560Z,99686.06
2022-09-26T14:57:04.695Z,99695.03
2022-09-26T14:59:34.327Z,99676.94
2022-09-26T15:02:31.298Z,99687.59
2022-09-26T15:05:13.337Z,99679.38
2022-09-26T15:07:48.961Z,99688.91
2022-09-26T15:10:36.685Z,99697.59
2022-09-26T15:13:07.835Z,99689.59
2022-09-26T15:16:07.974Z,99687.84
2022-09-26T15:18:41.756Z,99675.66
2022-09-26T15:21:45.423Z,99683.94
2022-09-26T15:24:33.398Z,99685.56
2022-09-26T15:27:15.049Z,99682.69
2022-09-26T15:29:47.295Z,99673.16
2022-09-26T15:32:25.904Z,99674.97
2022-09-26T15:34:54.792Z,99676.78
2022-09-26T15:37:31.242Z,99672.47
2022-09-26T15:40:12.519Z,99673.28
2022-09-26T15:42:57.551Z,99669.69
2022-09-26T15:45:40.239Z,99668.34
2022-09-26T15:48:27.378Z,99654.81
2022-09-26T15:50:53.732Z,99657.28
2022-09-26T15:53:28.640Z,99656.94
2022-09-26T15:56:08.839Z,99659.31
2022-09-26T15:59:12.685Z,99655.69
2022-09-26T16:01:43.429Z,99652.53
2022-09-26T16:04:23.640Z,99657.94
2022-09-26T16:07:03.377Z,99651.59
2022-09-26T16:09:35.896Z,99651.72
2022-09-26T16:12:05.950Z,99647.16
2022-09-26T16:14:40.417Z,99641.66
2022-09-26T16:17:18.942Z,99633.91
2022-09-26T16:20:09.702Z,99636.97
2022-09-26T16:22:46.880Z,99629.09
2022-09-26T16:25:19.450Z,99630.63
2022-09-26T16:28:10.994Z,99626.47
2022-09-26T16:30:43.190Z,99633.91
2022-09-26T16:33:09.685Z,99620.97
2022-09-26T16:35:37.524Z,99624.00
2022-09-26T16:38:21.144Z,99613.50
2022-09-26T16:40:55.878Z,99616.81
2022-09-26T16:43:41.357Z,99617.91
2022-09-26T16:46:14.488Z,99625.78
2022-09-26T16:48:50.254Z,99630.72
2022-09-26T16:51:34.380Z,99628.09
2022-09-26T16:54:20.444Z,99631.69
2022-09-26T16:56:51.460Z,99620.81
2022-09-26T16:59:22.736Z,99623.97
2022-09-26T17:01:54.953Z,99620.25
2022-09-26T17:04:30.860Z,99633.84
2022-09-26T17:07:08.834Z,99631.06
2022-09-26T17:09:35.974Z,99631.47
2022-09-26T17:12:05.403Z,99632.44
2022-09-26T17:14:40.447Z,99632.56
2022-09-26T17:17:13.095Z,99635.19
2022-09-26T17:19:41.045Z,99637.78
2022-09-26T17:22:19.155Z,99630.06
2022-09-26T17:24:47.876Z,99626.19
2022-09-26T17:27:18.247Z,99621.47
2022-09-26T17:29:48.451Z,99632.09
2022-09-26T17:32:40.027Z,99627.13
2022-09-26T17:35:19.802Z,99633.44
2022-09-26T17:37:46.208Z,99638.03
2022-09-26T17:40:19.686Z,99635.50
2022-09-26T17:42:46.433Z,99637.31
2022-09-26T17:45:13.033Z,99636.47
2022-09-26T17:47:40.219Z,99631.25
2022-09-26T17:50:17.505Z,99631.34
2022-09-26T17:52:44.109Z,99634.25
2022-09-26T17:55:11.492Z,99642.25
2022-09-26T17:57:41.743Z,99646.78
2022-09-26T18:00:11.365Z,99636.69
2022-09-26T18:02:42.672Z,99645.78
2022-09-26T18:05:21.537Z,99653.19
2022-09-26T18:07:52.303Z,99657.03
2022-09-26T18:10:25.045Z,99658.13
2022-09-26T18:12:57.445Z,99655.66
2022-09-26T18:15:25.116Z,99651.22
2022-09-26T18:17:52.443Z,99655.50
2022-09-26T18:20:21.596Z,99651.94
2022-09-26T18:22:50.796Z,99658.00
2022-09-26T18:25:23.872Z,99657.03
2022-09-26T18:27:54.683Z,99661.31
2022-09-26T18:30:22.451Z,99650.72
2022-09-26T18:32:52.930Z,99656.91
2022-09-26T18:35:24.122Z,99661.31
2022-09-26T18:37:55.795Z,99660.63
2022-09-26T18:40:27.965Z,99652.75
2022-09-26T18:42:54.929Z,99654.56
2022-09-26T18:45:27.616Z,99669.41
2022-09-26T18:47:54.626Z,99655.66
2022-09-26T18:50:34.210Z,99657.53
2022-09-26T18:53:00.779Z,99659.34
2022-09-26T18:55:46.241Z,99657.81
2022-09-26T18:58:29.692Z,99651.88
2022-09-26T19:00:56.576Z,99657.22
2022-09-26T19:03:25.252Z,99657.38
2022-09-26T19:05:54.838Z,99663.69
2022-09-26T19:08:39.430Z,99658.59
2022-09-26T19:11:12.951Z,99663.25
2022-09-26T19:13:40.462Z,99667.66
2022-09-26T19:16:07.867Z,99674.00
2022-09-26T19:18:34.906Z,99669.59
2022-09-26T19:21:04.213Z,99677.53
2022-09-26T19:23:35.049Z,99680.41
2022-09-26T19:26:03.077Z,99685.78
2022-09-26T19:28:34.172Z,99689.38
2022-09-26T19:31:01.532Z,99701.59
2022-09-26T19:33:28.255Z,99696.50
2022-09-26T19:35:55.094Z,99698.41
2022-09-26T19:38:26.497Z,99708.06
2022-09-26T19:40:53.781Z,99723.91
2022-09-26T19:43:21.884Z,99716.97
2022-09-26T19:45:52.202Z,99723.19
2022-09-26T19:48:22.044Z,99726.63
2022-09-26T19:50:50.375Z,99729.38
2022-09-26T19:53:19.398Z,99734.63
2022-09-26T19:55:50.300Z,99730.34
2022-09-26T19:58:25.174Z,99735.84
2022-09-26T20:01:00.227Z,99732.63
2022-09-26T20:03:39.880Z,99734.41
2022-09-26T20:06:15.188Z,99736.06
2022-09-26T20:08:42.727Z,99737.28
2022-09-26T20:11:09.309Z,99736.31
2022-09-26T20:13:55.886Z,99740.00
2022-09-26T20:16:23.123Z,99741.09
2022-09-26T20:18:51.148Z,99735.16
2022-09-26T20:21:21.590Z,99737.88
2022-09-26T20:23:48.185Z,99735.41
2022-09-26T20:26:15.335Z,99733.88
2022-09-26T20:28:41.738Z,99739.22
2022-09-26T20:31:34.750Z,99731.75
2022-09-26T20:34:01.717Z,99723.19
2022-09-26T20:36:31.975Z,99729.50
2022-09-26T20:39:03.119Z,99724.28
2022-09-26T20:41:33.905Z,99726.16
2022-09-26T20:44:05.154Z,99724.63
2022-09-26T20:46:35.277Z,99725.59
2022-09-26T20:49:04.958Z,99723.94
2022-09-26T20:51:35.086Z,99723.09
2022-09-26T20:54:02.611Z,99731.88
2022-09-26T20:56:29.276Z,99725.00
2022-09-26T20:58:55.693Z,99718.13
2022-09-26T21:01:22.817Z,99715.59
2022-09-26T21:03:51.967Z,99714.69
2022-09-26T21:06:20.684Z,99720.00
2022-09-26T21:08:48.005Z,99715.84
2022-09-26T21:11:17.139Z,99717.59
2022-09-26T21:13:43.608Z,99713.34
2022-09-26T21:16:19.154Z,99714.16
2022-09-26T21:18:49.096Z,99719.53
2022-09-26T21:21:29.681Z,99715.13
2022-09-26T21:23:58.843Z,99715.22
2022-09-26T21:26:27.882Z,99713.81
2022-09-26T21:28:55.471Z,99716.69
2022-09-26T21:31:29.510Z,99724.41
2022-09-26T21:33:58.280Z,99716.69
2022-09-26T21:36:32.642Z,99717.75
2022-09-26T21:39:01.623Z,99716.22
2022-09-26T21:41:29.306Z,99730.22
2022-09-26T21:44:03.317Z,99716.56
2022-09-26T21:46:29.865Z,99724.66
2022-09-26T21:48:56.408Z,99729.88
2022-09-26T21:51:27.371Z,99723.97
2022-09-26T21:54:06.130Z,99725.84
2022-09-26T21:56:37.897Z,99718.16
2022-09-26T21:59:06.592Z,99725.16
2022-09-26T22:01:33.235Z,99721.97
2022-09-26T22:03:59.644Z,99716.00
2022-09-26T22:06:26.075Z,99709.13
2022-09-26T22:08:52.491Z,99719.59
2022-09-26T22:11:18.908Z,99723.13
2022-09-26T22:13:45.372Z,99715.44
2022-09-26T22:16:13.153Z,99711.03
2022-09-26T22:18:40.367Z,99710.19
2022-09-26T22:21:08.594Z,99704.97
2022-09-26T22:23:35.530Z,99702.69
2022-09-26T22:26:02.454Z,99701.03
2022-09-26T22:28:29.413Z,99706.28
2022-09-26T22:30:56.338Z,99708.19
2022-09-26T22:33:23.239Z,99711.72
2022-09-26T22:35:50.687Z,99709.13
2022-09-26T22:38:18.251Z,99709.34
2022-09-26T22:40:45.465Z,99700.69
2022-09-26T22:43:11.979Z,99705.09
2022-09-26T22:45:38.417Z,99705.91
2022-09-26T22:48:04.823Z,99701.66
2022-09-26T22:50:31.266Z,99700.00
2022-09-26T22:52:59.062Z,99702.63
2022-09-26T22:55:25.506Z,99699.16
2022-09-26T22:57:52.025Z,99707.13
2022-09-26T23:00:18.516Z,99709.00
2022-09-26T23:02:45.090Z,99708.19
2022-09-26T23:05:11.573Z,99711.03
2022-09-26T23:07:38.026Z,99702.50
2022-09-26T23:10:04.691Z,99714.00
2022-09-26T23:12:32.830Z,99709.00
2022-09-26T23:14:59.294Z,99710.06
2022-09-26T23:17:25.679Z,99713.75
2022-09-26T23:19:52.350Z,99714.94
2022-09-26T23:22:18.950Z,99715.91
2022-09-26T23:24:45.405Z,99719.69
2022-09-26T23:27:11.882Z,99719.94
2022-09-26T23:29:38.274Z,99723.59
2022-09-26T23:32:04.767Z,99723.84
2022-09-26T23:34:31.286Z,99723.13
2022-09-26T23:36:57.678Z,99719.78
2022-09-26T23:39:24.279Z,99723.38
2022-09-26T23:41:50.843Z,99723.47
2022-09-26T23:44:17.329Z,99725.38
2022-09-26T23:46:44.055Z,99718.59
2022-09-26T23:49:10.588Z,99723.09
2022-09-26T23:51:37.024Z,99721.53
2022-09-26T23:54:03.523Z,99727.13
2022-09-26T23:56:29.979Z,99721.06
2022-09-26T23:58:57.326Z,99729.97
